^^
Station Historical Data
Daily Summary for January 10, 2017 Units:  English    Metric   Both
« Previous Day
Next Day »
Daily Weekly Monthly Yearly Custom
  High: Low: Average:
Temperature: 43.2 °F 14.9 °F 26.2 °F
Dew Point: 39.0 °F 8.8 °F 20.3 °F
Humidity: 92% 63% 78%
Wind Speed: 8.0mph 0.0mph 0.7mph
Wind Gust: 14.0mph - -
Wind- - SSW
Pressure: 30.69 in 30.23 in -
Precipitation: 0.05 in    
Historical Graphs
 
 
Tabular Data for January 10, 2017
Time Temperature Dew Point Pressure Wind Wind Speed Wind Gust Humidity Rainfall Rate (Hourly) Conditions
00:00 17.6 °F 8.9 °F 30.69 in Calm   3.0 mph 68% 0.00 in CLR
00:10 17.4 °F 9.0 °F 30.68 in Calm   2.0 mph 69% 0.00 in CLR
00:20 17.1 °F 9.0 °F 30.68 in South 1.0 mph 3.0 mph 70% 0.00 in CLR
00:30 17.0 °F 9.2 °F 30.68 in SSW 1.0 mph 3.0 mph 71% 0.00 in CLR
00:40 17.0 °F 9.2 °F 30.67 in South 2.0 mph 4.0 mph 71% 0.00 in CLR
00:50 17.0 °F 9.2 °F 30.67 in Calm   4.0 mph 71% 0.00 in CLR
01:00 16.9 °F 9.5 °F 30.67 in Calm   3.0 mph 72% 0.00 in CLR
01:10 16.8 °F 9.3 °F 30.66 in Calm   2.0 mph 72% 0.00 in CLR
01:20 16.7 °F 9.2 °F 30.67 in Calm   2.0 mph 72% 0.00 in CLR
01:30 16.6 °F 9.1 °F 30.67 in SSW 1.0 mph 3.0 mph 72% 0.00 in CLR
01:40 16.9 °F 9.4 °F 30.67 in SSW 1.0 mph 3.0 mph 72% 0.00 in CLR
01:50 16.8 °F 9.4 °F 30.67 in Calm   4.0 mph 72% 0.00 in CLR
02:00 16.5 °F 9.0 °F 30.67 in Calm   1.0 mph 72% 0.00 in CLR
02:10 16.0 °F 8.8 °F 30.67 in South 1.0 mph 3.0 mph 73% 0.00 in CLR
02:20 16.0 °F 8.9 °F 30.66 in Calm   1.0 mph 73% 0.00 in CLR
02:30 15.9 °F 9.0 °F 30.67 in Calm   1.0 mph 74% 0.00 in CLR
02:40 16.1 °F 9.3 °F 30.67 in Calm   1.0 mph 74% 0.00 in CLR
02:50 16.3 °F 9.5 °F 30.67 in Calm   1.0 mph 74% 0.00 in CLR
03:00 16.6 °F 9.4 °F 30.66 in Calm   2.0 mph 73% 0.00 in CLR
03:10 16.4 °F 9.6 °F 30.67 in Calm   1.0 mph 74% 0.00 in CLR
03:20 16.9 °F 9.8 °F 30.66 in SSW 1.0 mph 4.0 mph 73% 0.00 in CLR
03:30 17.2 °F 9.7 °F 30.66 in SSW 1.0 mph 3.0 mph 72% 0.00 in CLR
03:40 17.3 °F 9.8 °F 30.65 in Calm   2.0 mph 72% 0.00 in CLR
03:50 17.3 °F 9.8 °F 30.65 in Calm   2.0 mph 72% 0.00 in CLR
04:00 17.0 °F 10.1 °F 30.66 in Calm   2.0 mph 74% 0.00 in CLR
04:10 17.2 °F 10.4 °F 30.65 in Calm   3.0 mph 74% 0.00 in CLR
04:20 17.0 °F 10.1 °F 30.66 in Calm   1.0 mph 74% 0.00 in CLR
04:30 16.7 °F 10.1 °F 30.66 in Calm     75% 0.00 in CLR
04:40 16.6 °F 10.3 °F 30.66 in Calm   2.0 mph 76% 0.00 in CLR
04:50 16.8 °F 10.5 °F 30.66 in Calm   2.0 mph 76% 0.00 in CLR
05:00 17.0 °F 11.0 °F 30.66 in Calm   2.0 mph 77% 0.00 in CLR
05:10 17.0 °F 10.7 °F 30.66 in Calm   3.0 mph 76% 0.00 in FEW
05:20 16.9 °F 10.6 °F 30.66 in Calm   1.0 mph 76% 0.00 in FEW
05:30 16.7 °F 10.7 °F 30.66 in Calm   1.0 mph 77% 0.00 in FEW
05:40 16.2 °F 10.3 °F 30.67 in Calm     77% 0.00 in FEW
05:50 16.1 °F 10.4 °F 30.66 in Calm     78% 0.00 in FEW
06:00 16.0 °F 10.4 °F 30.67 in Calm     78% 0.00 in FEW
06:10 15.2 °F 9.9 °F 30.67 in Calm     79% 0.00 in CLR
06:20 14.9 °F 9.6 °F 30.67 in Calm     79% 0.00 in CLR
06:30 14.9 °F 10.4 °F 30.67 in Calm     82% 0.00 in CLR
06:40 15.4 °F 10.6 °F 30.67 in Calm     81% 0.00 in CLR
06:50 15.0 °F 10.2 °F 30.66 in Calm     81% 0.00 in CLR
07:00 16.7 °F 12.5 °F 30.65 in Calm   1.0 mph 83% 0.00 in CLR
07:10 16.7 °F 11.9 °F 30.65 in Calm     81% 0.00 in CLR
07:20 16.7 °F 12.2 °F 30.66 in Calm     82% 0.00 in CLR
07:30 16.7 °F 11.9 °F 30.67 in Calm     81% 0.00 in CLR
07:40 17.3 °F 12.7 °F 30.67 in Calm     82% 0.00 in CLR
07:50 18.0 °F 13.4 °F 30.67 in Calm     82% 0.00 in CLR
08:00 17.8 °F 13.0 °F 30.66 in Calm     81% 0.00 in CLR
08:10 18.4 °F 13.5 °F 30.66 in Calm     81% 0.00 in CLR
08:20 18.9 °F 13.7 °F 30.66 in Calm     80% 0.00 in CLR
08:30 19.2 °F 13.8 °F 30.66 in Calm     79% 0.00 in CLR
08:40 19.9 °F 14.5 °F 30.67 in Calm     79% 0.00 in CLR
08:50 20.2 °F 14.5 °F 30.67 in Calm     78% 0.00 in CLR
09:00 20.9 °F 15.1 °F 30.67 in Calm   1.0 mph 78% 0.00 in CLR
09:10 21.7 °F 15.6 °F 30.67 in Calm   1.0 mph 77% 0.00 in CLR
09:20 22.7 °F 16.3 °F 30.67 in Calm   2.0 mph 76% 0.00 in CLR
09:30 23.4 °F 16.3 °F 30.67 in Calm   2.0 mph 74% 0.00 in CLR
09:40 23.6 °F 15.9 °F 30.67 in Calm   2.0 mph 72% 0.00 in CLR
09:50 23.9 °F 16.2 °F 30.67 in Calm   2.0 mph 72% 0.00 in CLR
10:00 24.2 °F 16.1 °F 30.66 in Calm   1.0 mph 71% 0.00 in CLR
10:10 24.4 °F 16.0 °F 30.66 in Calm   1.0 mph 70% 0.00 in CLR
10:20 24.8 °F 16.4 °F 30.66 in Calm   2.0 mph 70% 0.00 in CLR
10:30 25.8 °F 17.0 °F 30.66 in Calm   2.0 mph 69% 0.00 in CLR
10:40 26.1 °F 17.6 °F 30.66 in Calm   2.0 mph 70% 0.00 in CLR
10:50 25.3 °F 17.8 °F 30.65 in WNW 1.0 mph 2.0 mph 73% 0.00 in CLR
11:00 25.5 °F 18.4 °F 30.64 in Calm   2.0 mph 74% 0.00 in CLR
11:10 26.3 °F 18.8 °F 30.63 in Calm   2.0 mph 73% 0.00 in CLR
11:20 26.0 °F 18.9 °F 30.62 in WNW 1.0 mph 4.0 mph 74% 0.00 in CLR
11:30 27.2 °F 19.7 °F 30.61 in Calm   2.0 mph 73% 0.00 in CLR
11:40 29.0 °F 19.8 °F 30.60 in Calm   6.0 mph 68% 0.00 in CLR
11:50 29.5 °F 19.2 °F 30.59 in Calm   6.0 mph 65% 0.00 in CLR
12:00 29.3 °F 20.0 °F 30.59 in Calm   4.0 mph 68% 0.00 in CLR
12:10 29.7 °F 20.1 °F 30.59 in WSW 2.0 mph 4.0 mph 67% 0.00 in FEW
12:20 29.6 °F 20.3 °F 30.58 in SW 1.0 mph 4.0 mph 68% 0.00 in FEW
12:30 30.1 °F 20.4 °F 30.57 in WSW 1.0 mph 4.0 mph 67% 0.00 in FEW
12:40 30.2 °F 19.8 °F 30.56 in SW 1.0 mph 5.0 mph 65% 0.00 in FEW
12:50 30.9 °F 20.9 °F 30.56 in WSW 1.0 mph 3.0 mph 66% 0.00 in FEW
13:00 31.3 °F 21.3 °F 30.55 in SW 2.0 mph 6.0 mph 66% 0.00 in FEW
13:10 31.1 °F 20.0 °F 30.54 in Calm   5.0 mph 63% 0.00 in SCT
13:20 31.9 °F 22.6 °F 30.53 in SW 1.0 mph 6.0 mph 68% 0.00 in SCT
13:30 32.6 °F 23.2 °F 30.53 in South 2.0 mph 6.0 mph 68% 0.00 in SCT
13:40 33.4 °F 24.3 °F 30.53 in South 2.0 mph 8.0 mph 69% 0.00 in SCT
13:50 33.8 °F 25.0 °F 30.53 in SSW 5.0 mph 8.0 mph 70% 0.00 in SCT
14:00 33.8 °F 25.4 °F 30.52 in SSW 5.0 mph 12.0 mph 71% 0.00 in SCT
14:10 33.8 °F 25.7 °F 30.52 in SSE 2.0 mph 7.0 mph 72% 0.00 in BKN
14:20 33.6 °F 25.9 °F 30.52 in SW 2.0 mph 7.0 mph 73% 0.00 in BKN
14:30 33.4 °F 26.3 °F 30.51 in SSW 1.0 mph 8.0 mph 75% 0.00 in BKN
14:40 33.6 °F 26.5 °F 30.50 in Calm   4.0 mph 75% 0.00 in BKN
14:50 33.4 °F 26.0 °F 30.50 in South 1.0 mph 4.0 mph 74% 0.00 in BKN
15:00 33.0 °F 25.6 °F 30.49 in Calm   4.0 mph 74% 0.00 in BKN
15:10 32.4 °F 24.7 °F 30.50 in Calm   4.0 mph 73% 0.00 in BKN
15:20 32.3 °F 24.9 °F 30.50 in Calm   2.0 mph 74% 0.00 in BKN
15:30 32.0 °F 25.0 °F 30.49 in Calm   2.0 mph 75% 0.00 in BKN
15:40 31.7 °F 24.7 °F 30.49 in Calm   2.0 mph 75% 0.00 in BKN
15:50 31.5 °F 24.8 °F 30.50 in Calm   2.0 mph 76% 0.00 in BKN
16:00 31.4 °F 25.0 °F 30.50 in Calm   3.0 mph 77% 0.00 in BKN
16:10 31.3 °F 25.2 °F 30.49 in Calm   1.0 mph 78% 0.00 in BKN
16:20 31.1 °F 25.3 °F 30.48 in Calm   2.0 mph 79% 0.00 in BKN
16:30 31.0 °F 25.9 °F 30.48 in Calm   2.0 mph 81% 0.00 in BKN
16:40 31.0 °F 26.2 °F 30.48 in Calm   2.0 mph 82% 0.00 in BKN
16:50 31.0 °F 26.1 °F 30.48 in Calm   1.0 mph 82% 0.00 in BKN
17:00 31.0 °F 26.4 °F 30.47 in Calm   2.0 mph 83% 0.00 in BKN
17:10 31.0 °F 26.7 °F 30.46 in Calm   1.0 mph 84% 0.00 in OVC
17:20 31.1 °F 27.1 °F 30.46 in Calm   1.0 mph 85% 0.00 in OVC
17:30 31.2 °F 27.2 °F 30.46 in Calm   1.0 mph 85% 0.00 in OVC
17:40 31.3 °F 27.6 °F 30.45 in Calm   1.0 mph 86% 0.00 in OVC
17:50 31.3 °F 27.6 °F 30.45 in Calm   1.0 mph 86% 0.00 in OVC
18:00 31.3 °F 27.6 °F 30.45 in Calm   2.0 mph 86% 0.00 in OVC
18:10 31.4 °F 27.7 °F 30.44 in Calm   2.0 mph 86% 0.00 in OVC
18:20 31.4 °F 28.0 °F 30.43 in Calm   1.0 mph 87% 0.00 in OVC
18:30 31.4 °F 28.0 °F 30.43 in Calm   2.0 mph 87% 0.00 in OVC
18:40 31.6 °F 28.2 °F 30.42 in NW 1.0 mph 2.0 mph 87% 0.00 in OVC
18:50 31.7 °F 28.3 °F 30.42 in North 1.0 mph 3.0 mph 87% 0.00 in OVC
19:00 31.8 °F 28.7 °F 30.41 in Calm   3.0 mph 88% 0.00 in OVC
19:10 31.9 °F 28.8 °F 30.40 in Calm   2.0 mph 88% 0.00 in BKN
19:20 32.0 °F 28.8 °F 30.39 in Calm   2.0 mph 88% 0.00 in BKN
19:30 32.3 °F 29.4 °F 30.39 in Calm   4.0 mph 89% 0.00 in BKN
19:40 32.5 °F 29.6 °F 30.39 in Calm   2.0 mph 89% 0.00 in BKN
19:50 32.7 °F 30.1 °F 30.38 in Calm   3.0 mph 90% 0.00 in BKN
20:00 32.9 °F 30.3 °F 30.37 in Calm   3.0 mph 90% 0.00 in BKN
20:10 33.2 °F 30.6 °F 30.37 in Calm   3.0 mph 90% 0.00 in BKN
20:20 33.2 °F 30.6 °F 30.36 in NE 1.0 mph 3.0 mph 90% 0.00 in BKN
20:30 33.4 °F 30.8 °F 30.35 in North 1.0 mph 3.0 mph 90% 0.00 in BKN
20:40 33.4 °F 31.1 °F 30.35 in Calm   3.0 mph 91% 0.00 in BKN
20:50 33.6 °F 31.3 °F 30.34 in Calm   3.0 mph 91% 0.00 in BKN
21:00 34.1 °F 31.7 °F 30.33 in Calm   3.0 mph 91% 0.00 in BKN
21:10 34.3 °F 32.2 °F 30.33 in Calm   4.0 mph 92% 0.00 in BKN
21:20 34.7 °F 32.7 °F 30.32 in SSE 1.0 mph 5.0 mph 92% 0.00 in BKN
21:30 35.3 °F 33.2 °F 30.31 in Calm   4.0 mph 92% 0.00 in BKN
21:40 36.0 °F 33.9 °F 30.30 in South 3.0 mph 6.0 mph 92% 0.00 in BKN
21:50 36.5 °F 34.4 °F 30.30 in South 3.0 mph 8.0 mph 92% 0.00 in BKN
22:00 37.1 °F 34.7 °F 30.29 in South 1.0 mph 7.0 mph 91% 0.01 in RA
22:10 37.3 °F 34.9 °F 30.28 in South 2.0 mph 6.0 mph 91% 0.00 in BKN
22:20 37.8 °F 35.4 °F 30.28 in SSE 1.0 mph 6.0 mph 91% 0.00 in BKN
22:30 38.1 °F 35.7 °F 30.28 in South 1.0 mph 7.0 mph 91% 0.00 in BKN
22:40 38.4 °F 35.7 °F 30.26 in South 1.0 mph 8.0 mph 90% 0.01 in RA
22:50 38.9 °F 36.3 °F 30.26 in SSW 5.0 mph 8.0 mph 90% 0.00 in BKN
23:00 40.2 °F 37.2 °F 30.26 in SSW 6.0 mph 14.0 mph 89% 0.02 in RA
23:10 41.6 °F 38.0 °F 30.25 in South 7.0 mph 14.0 mph 87% 0.00 in BKN
23:20 42.4 °F 38.2 °F 30.25 in SW 7.0 mph 14.0 mph 85% 0.01 in RA
23:30 42.6 °F 38.4 °F 30.24 in South 6.0 mph 12.0 mph 85% 0.00 in BKN
23:40 42.9 °F 38.7 °F 30.23 in South 8.0 mph 13.0 mph 85% 0.00 in BKN
23:50 43.2 °F 39.0 °F 30.23 in South 5.0 mph 13.0 mph 85% 0.00 in BKN
TarryTown NY Weather
Compliments of Weather Underground - 1.75 mb